Data for 03/01/2008

Time Sea-Level Adjusted Pressure Absolute Pressure Temperature Relative Humidity Dew Point   
(mb) (inHg) (mb) (inHg) (C) (F) (%) (C) (F)
00:05 1012 29.88 841 24.83 6.6 43.8 40 -6.1 20.9
00:10 1012 29.88 841 24.83 6.7 44.1 39 -6.3 20.6
00:15 1012 29.88 841 24.83 7 44.5 38 -6.3 20.6
00:20 1012 29.88 841 24.83 7.1 44.7 38 -6.2 20.8
00:25 1012 29.88 841 24.83 6.8 44.3 39 -6.2 20.8
00:30 1011 29.85 841 24.83 6.6 43.8 40 -6.1 20.9
00:35 1011 29.85 841 24.83 6.4 43.6 39 -6.4 20.4
00:40 1011 29.85 840 24.81 6.7 44 39 -6.3 20.7
00:45 1011 29.85 840 24.81 6.7 44.1 39 -6.2 20.8
00:50 1011 29.85 840 24.81 6.6 43.9 40 -6 21.1
00:55 1011 29.85 840 24.81 6.4 43.6 41 -5.9 21.4
01:00 1011 29.85 840 24.81 6.4 43.5 41 -5.9 21.3
01:05 1011 29.85 840 24.81 6.5 43.7 40 -6.1 21.1
01:10 1011 29.85 840 24.81 6.6 43.9 40 -6 21.2
01:15 1011 29.85 840 24.81 6.6 43.8 40 -6 21.2
01:20 1011 29.85 840 24.81 6.5 43.7 40 -6 21.2
01:25 1011 29.85 840 24.81 6.5 43.6 40 -6 21.2
01:30 1011 29.85 840 24.81 6.4 43.6 41 -5.8 21.5
01:35 1011 29.85 840 24.81 6.3 43.3 41 -6 21.3
01:40 1011 29.85 840 24.81 6.3 43.4 41 -6 21.1
01:45 1011 29.85 840 24.81 6.5 43.6 41 -6 21.3
01:50 1011 29.85 840 24.81 6.5 43.8 40 -6.1 21.1
01:55 1011 29.85 840 24.81 6.7 44.1 39 -6.2 20.9
02:00 1011 29.85 840 24.81 6.9 44.5 39 -6 21.1
02:05 1010 29.83 840 24.81 6.9 44.3 40 -6 21.3
02:10 1010 29.83 840 24.81 6.8 44.3 40 -5.9 21.3
02:15 1010 29.83 840 24.81 6.7 44.1 40 -5.9 21.4
02:20 1010 29.83 840 24.81 6.8 44.2 40 -5.8 21.5
02:25 1010 29.83 840 24.81 6.8 44.2 41 -5.7 21.8
02:30 1010 29.83 839 24.78 6.7 44.1 41 -5.7 21.7
02:35 1010 29.83 839 24.78 6.7 44.1 41 -5.6 21.9
02:40 1010 29.83 839 24.78 6.7 44.1 40 -5.8 21.5
02:45 1010 29.83 839 24.78 6.8 44.2 40 -5.9 21.4
02:50 1010 29.83 839 24.78 6.8 44.3 40 -5.8 21.5
02:55 1010 29.83 839 24.78 6.8 44.3 40 -5.8 21.5
03:00 1010 29.83 839 24.78 6.8 44.3 40 -6 21.2
03:05 1010 29.83 839 24.78 6.9 44.4 40 -5.9 21.4
03:10 1010 29.83 839 24.78 6.8 44.3 40 -5.9 21.4
03:15 1010 29.83 839 24.78 6.8 44.3 39 -6.2 20.8
03:20 1010 29.83 839 24.78 7 44.7 38 -6.4 20.5
03:25 1010 29.83 840 24.81 7.3 45.1 37 -6.4 20.4
03:30 1010 29.83 840 24.81 7.2 44.9 38 -6.3 20.7
03:35 1010 29.83 840 24.81 7 44.6 38 -6.5 20.3
03:40 1010 29.83 840 24.81 7.2 44.9 35 -7.4 18.6
03:45 1010 29.83 840 24.81 8.1 46.6 33 -7.1 19.3
03:50 1010 29.83 840 24.81 7.9 46.1 34 -6.9 19.6
03:55 1011 29.85 840 24.81 7.5 45.5 36 -6.7 19.9
04:00 1011 29.85 840 24.81 7.1 44.7 37 -6.5 20.3
04:05 1011 29.85 840 24.81 7 44.7 38 -6.5 20.4
04:10 1010 29.83 840 24.81 6.9 44.4 39 -6.2 20.8
04:15 1010 29.83 839 24.78 6.8 44.2 38 -6.6 20.1
04:20 1010 29.83 839 24.78 7.5 45.5 34 -7.2 19
04:25 1010 29.83 839 24.78 7.8 46.1 35 -6.8 19.8
04:30 1010 29.83 839 24.78 7.6 45.6 35 -6.9 19.5
04:35 1010 29.83 839 24.78 7.6 45.6 35 -6.9 19.7
04:40 1010 29.83 839 24.78 7.7 45.8 35 -6.8 19.8
04:45 1010 29.83 839 24.78 7.4 45.4 36 -6.7 19.9
04:50 1010 29.83 839 24.78 7.4 45.2 36 -6.8 19.7
04:55 1010 29.83 839 24.78 7.6 45.8 35 -7 19.4
05:00 1010 29.83 839 24.78 8.4 47.1 34 -6.6 20.2
05:05 1010 29.83 839 24.78 8.5 47.3 34 -6.3 20.6
05:10 1010 29.83 839 24.78 8.7 47.6 34 -6.3 20.7
05:15 1009 29.8 839 24.78 9 48.1 34 -6 21.1
05:20 1009 29.8 839 24.78 9.3 48.7 33 -6.1 21.1
05:25 1009 29.8 838 24.75 9.6 49.2 32 -6.4 20.5
05:30 1009 29.8 838 24.75 9.6 49.2 32 -6.1 21
05:35 1009 29.8 838 24.75 9.2 48.6 33 -6.3 20.6
05:40 1009 29.8 838 24.75 9.2 48.6 33 -6.3 20.6
05:45 1009 29.8 838 24.75 9.1 48.4 33 -6.2 20.9
05:50 1009 29.8 838 24.75 8.9 48 34 -6 21.2
05:55 1009 29.8 838 24.75 8.6 47.4 35 -5.9 21.3
06:00 1009 29.8 838 24.75 7.8 46 38 -5.7 21.8
06:05 1009 29.8 838 24.75 7.2 45 40 -5.5 22.2
06:10 1009 29.8 838 24.75 6.9 44.4 41 -5.4 22.3
06:15 1009 29.8 838 24.75 6.8 44.2 42 -5.3 22.5
06:20 1008 29.77 838 24.75 7 44.7 42 -4.9 23.2
06:25 1008 29.77 837 24.72 8 46.5 39 -5 23.1
06:30 1008 29.77 837 24.72 8.8 47.9 37 -5.1 22.8
06:35 1008 29.77 837 24.72 9 48.2 38 -4.6 23.8
06:40 1008 29.77 837 24.72 8.8 47.9 38 -4.8 23.4
06:45 1008 29.77 837 24.72 9.1 48.4 36 -5.3 22.5
06:50 1008 29.77 837 24.72 9.4 48.9 38 -4.2 24.5
06:55 1008 29.77 837 24.72 8.3 46.9 40 -4.4 24
07:00 1008 29.77 837 24.72 8.2 46.7 40 -4.4 24
07:05 1008 29.77 837 24.72 8.4 47.1 38 -5 23
07:10 1008 29.77 837 24.72 8.7 47.6 39 -4.6 23.7
07:15 1008 29.77 837 24.72 8.4 47.1 41 -4.2 24.4
07:20 1007 29.74 837 24.72 8.5 47.2 38 -4.9 23.2
07:25 1007 29.74 837 24.72 8.8 47.9 38 -4.5 23.8
07:30 1007 29.74 836 24.69 8.8 47.9 39 -4.3 24.2
07:35 1007 29.74 836 24.69 8.6 47.5 40 -4.1 24.6
07:40 1007 29.74 836 24.69 8.6 47.4 40 -4.1 24.5
07:45 1007 29.74 836 24.69 8.7 47.6 39 -4.4 24.1
07:50 1007 29.74 836 24.69 8.8 47.9 40 -4.2 24.5
07:55 1007 29.74 836 24.69 9 48.1 40 -3.8 25.1
08:00 1007 29.74 836 24.69 8.7 47.7 40 -4.2 24.4
08:05 1007 29.74 836 24.69 9 48.1 39 -4.1 24.6
08:10 1007 29.74 836 24.69 9 48.1 40 -3.7 25.3
08:15 1007 29.74 836 24.69 9.1 48.4 38 -4.3 24.2
08:20 1007 29.74 836 24.69 9.2 48.5 40 -3.7 25.3
08:25 1006 29.71 836 24.69 9.1 48.3 40 -3.8 25.1
08:30 1006 29.71 835 24.66 8.9 48.1 41 -3.7 25.4
08:35 1006 29.71 835 24.66 9 48.2 40 -3.7 25.3
08:40 1006 29.71 835 24.66 9 48.1 41 -3.7 25.4
08:45 1006 29.71 835 24.66 8.9 48 41 -3.7 25.3
08:50 1006 29.71 835 24.66 9 48.2 41 -3.7 25.4
08:55 1006 29.71 835 24.66 9 48.3 41 -3.5 25.8
09:00 1006 29.71 835 24.66 9.1 48.4 42 -3.2 26.3
09:05 1006 29.71 835 24.66 9.1 48.3 41 -3.5 25.7
09:10 1006 29.71 835 24.66 9.6 49.3 40 -3.4 26
09:15 1005 29.68 835 24.66 9.6 49.3 39 -3.5 25.7
09:20 1005 29.68 835 24.66 9.8 49.7 39 -3.4 25.9
09:25 1005 29.68 835 24.66 9.9 49.8 39 -3.4 25.9
09:30 1005 29.68 835 24.66 9.8 49.6 40 -3 26.6
09:35 1005 29.68 835 24.66 9.7 49.4 40 -3.3 26
09:40 1005 29.68 835 24.66 9.8 49.6 41 -2.9 26.7
09:45 1005 29.68 835 24.66 9.7 49.5 41 -3 26.6
09:50 1005 29.68 834 24.63 9.6 49.2 42 -2.6 27.4
09:55 1005 29.68 834 24.63 9.2 48.6 44 -2.3 27.9
10:00 1005 29.68 834 24.63 9.2 48.6 42 -3.1 26.5
10:05 1005 29.68 835 24.66 9.4 48.8 43 -2.6 27.4
10:10 1005 29.68 835 24.66 9.3 48.8 43 -2.6 27.3
10:15 1005 29.68 835 24.66 9 48.2 46 -2 28.4
10:20 1006 29.71 835 24.66 9 48.2 45 -2.1 28.2
10:25 1006 29.71 835 24.66 9.6 49.2 45 -1.8 28.8
10:30 1006 29.71 835 24.66 9.4 48.8 47 -1.5 29.3
10:35 1006 29.71 835 24.66 7.4 45.2 57 -0.7 30.8
10:40 1006 29.71 836 24.69 5.6 42.1 63 -1 30.3
10:45 1007 29.74 836 24.69 4.9 40.9 65 -1 30.2
10:50 1007 29.74 836 24.69 4.3 39.8 68 -1 30.3
10:55 1007 29.74 836 24.69 3.8 38.8 71 -0.9 30.4
11:00 1007 29.74 837 24.72 3.4 38.2 74 -0.8 30.6
11:05 1008 29.77 837 24.72 3.2 37.8 75 -0.9 30.4
11:10 1008 29.77 837 24.72 2.9 37.2 76 -0.9 30.3
11:15 1008 29.77 837 24.72 2.6 36.7 79 -0.7 30.7
11:20 1008 29.77 838 24.75 2.2 35.9 83 -0.4 31.3
11:25 1009 29.8 838 24.75 1.3 34.4 87 -0.5 31
11:30 1009 29.8 838 24.75 0.9 33.6 91 -0.3 31.4
11:35 1009 29.8 838 24.75 0.7 33.2 93 -0.4 31.3
11:40 1009 29.8 839 24.78 0.5 32.9 94 -0.4 31.3
11:45 1010 29.83 839 24.78 0.3 32.6 95 -0.4 31.3
11:50 1010 29.83 839 24.78 0.2 32.3 96 -0.4 31.2
11:55 1010 29.83 839 24.78 0.1 32.1 96 -0.5 31.2
12:00 1010 29.83 839 24.78 -0.1 31.7 97 -0.6 30.9
12:05 1010 29.83 839 24.78 -0.4 31.3 98 -0.7 30.7
12:10 1010 29.83 839 24.78 -0.5 31.2 98 -0.7 30.7
12:15 1010 29.83 839 24.78 -0.5 31.1 98 -0.8 30.6
12:20 1010 29.83 839 24.78 -0.5 31 99 -0.8 30.6
12:25 1010 29.83 839 24.78 -0.5 31 99 -0.7 30.7
12:30 1010 29.83 840 24.81 -0.6 30.9 99 -0.8 30.6
12:35 1011 29.85 840 24.81 -0.7 30.8 99 -0.8 30.6
12:40 1011 29.85 840 24.81 -0.7 30.8 99 -0.7 30.7
12:45 1011 29.85 840 24.81 -0.6 30.9 100 -0.7 30.8
12:50 1010 29.83 840 24.81 -0.6 30.9 100 -0.6 30.8
12:55 1011 29.85 840 24.81 -0.6 30.9 164 6.3 43.4
13:00 1011 29.85 840 24.81 -0.8 30.6 164 6.1 43
13:05 1011 29.85 840 24.81 -1 30.2 164 5.9 42.7
13:10 1011 29.85 840 24.81 -1.1 30 164 5.8 42.5
13:15 1011 29.85 840 24.81 -1.1 30 164 5.8 42.5
13:20 1011 29.85 840 24.81 -1 30.2 164 6 42.7
13:25 1011 29.85 840 24.81 -0.8 30.5 164 6.1 43
13:30 1011 29.85 840 24.81 -0.7 30.7 164 6.2 43.2
13:35 1011 29.85 840 24.81 -0.5 31.1 164 6.5 43.6
13:40 1011 29.85 840 24.81 -0.3 31.4 164 6.6 43.9
13:45 1011 29.85 840 24.81 -0.2 31.6 164 6.7 44.1
13:50 1011 29.85 840 24.81 -0.3 31.5 164 6.7 44.1
13:55 1011 29.85 840 24.81 -0.3 31.5 164 6.7 44.1
14:00 1011 29.85 840 24.81 -0.3 31.4 164 6.6 43.9
14:05 1011 29.85 840 24.81 -0.3 31.5 164 6.7 44
14:10 1011 29.85 840 24.81 -0.4 31.4 164 6.6 43.9
14:15 1011 29.85 840 24.81 -0.3 31.4 164 6.7 44
14:20 1011 29.85 840 24.81 -0.3 31.5 164 6.7 44.1
14:25 1011 29.85 840 24.81 -0.4 31.3 164 6.6 43.9
14:30 1011 29.85 840 24.81 -0.4 31.3 164 6.6 43.8
14:35 1011 29.85 840 24.81 -0.3 31.4 164 6.7 44
14:40 1011 29.85 840 24.81 -0.3 31.5 164 6.7 44.1
14:45 1011 29.85 840 24.81 -0.1 31.7 164 6.8 44.3
14:50 1011 29.85 840 24.81 0.1 32.1 164 7 44.7
14:55 1011 29.85 840 24.81 0.2 32.3 164 7.2 45
15:00 1011 29.85 840 24.81 0.2 32.4 164 7.2 44.9
15:05 1011 29.85 840 24.81 0.1 32.1 164 7.1 44.7
15:10 1011 29.85 840 24.81 -0 31.9 164 7 44.5
15:15 1011 29.85 840 24.81 -0.4 31.3 164 6.6 43.9
15:20 1011 29.85 840 24.81 -0.5 31.2 164 6.5 43.7
15:25 1011 29.85 840 24.81 -0.2 31.6 164 6.8 44.2
15:30 1011 29.85 840 24.81 0 32 164 7 44.6
15:35 1011 29.85 840 24.81 0.1 32.1 164 7.1 44.7
15:40 1011 29.85 840 24.81 0.1 32.3 164 7.2 44.9
15:45 1011 29.85 840 24.81 0.1 32.2 164 7.1 44.8
15:50 1011 29.85 840 24.81 -0.2 31.6 164 6.8 44.2
15:55 1011 29.85 840 24.81 -0.5 31.1 164 6.5 43.7
16:00 1011 29.85 840 24.81 -0.8 30.5 164 6.1 43
16:05 1011 29.85 840 24.81 -1.1 30.1 164 5.9 42.6
16:10 1011 29.85 840 24.81 -0.9 30.4 164 6.1 42.9
16:15 1011 29.85 840 24.81 -0.8 30.6 164 6.2 43.1
16:20 1011 29.85 840 24.81 -1 30.2 164 6 42.7
16:25 1011 29.85 840 24.81 -1.2 29.9 164 5.8 42.4
16:30 1011 29.85 840 24.81 -1.1 30.1 164 5.9 42.6
16:35 1011 29.85 840 24.81 -0.9 30.4 164 6 42.9
16:40 1011 29.85 840 24.81 -0.7 30.7 164 6.2 43.2
16:45 1011 29.85 841 24.83 -0.7 30.8 164 6.3 43.4
16:50 1012 29.88 841 24.83 -0.6 30.9 164 6.3 43.4
16:55 1012 29.88 841 24.83 -0.8 30.6 164 6.2 43.1
17:00 1012 29.88 841 24.83 -0.8 30.6 164 6.2 43.1
17:05 1012 29.88 841 24.83 -0.7 30.7 164 6.3 43.3
17:10 1012 29.88 841 24.83 -0.7 30.8 164 6.3 43.3
17:15 1012 29.88 841 24.83 -0.7 30.8 164 6.3 43.4
17:20 1012 29.88 841 24.83 -1 30.1 164 5.9 42.7
17:25 1012 29.88 841 24.83 -1.1 30 164 5.9 42.5
17:30 1012 29.88 841 24.83 -1.1 30 164 5.8 42.5
17:35 1012 29.88 842 24.86 -1.2 29.9 164 5.8 42.4
17:40 1012 29.88 842 24.86 -1.2 29.9 164 5.8 42.4
17:45 1012 29.88 841 24.83 -1.3 29.7 164 5.7 42.2
17:50 1012 29.88 842 24.86 -1.4 29.4 164 5.5 41.9
17:55 1012 29.88 842 24.86 -1.6 29.2 164 5.4 41.7
18:00 1012 29.88 841 24.83 -1.8 28.8 164 5.1 41.3
18:05 1012 29.88 841 24.83 -1.9 28.5 164 5 41
18:10 1012 29.88 842 24.86 -1.9 28.6 164 5 41.1
18:15 1013 29.91 842 24.86 -1.8 28.7 164 5.1 41.1
18:20 1013 29.91 842 24.86 -2 28.4 164 4.9 40.9
18:25 1013 29.91 842 24.86 -2.2 28 164 4.7 40.5
18:30 1013 29.91 842 24.86 -2.2 28 164 4.7 40.4
18:35 1013 29.91 842 24.86 -2.2 28.1 164 4.7 40.5
18:40 1013 29.91 842 24.86 -2.1 28.1 164 4.8 40.6
18:45 1013 29.91 842 24.86 -2.1 28.2 164 4.8 40.6
18:50 1013 29.91 842 24.86 -2.1 28.2 164 4.8 40.7
18:55 1013 29.91 842 24.86 -2 28.4 164 4.9 40.8
19:00 1013 29.91 842 24.86 -1.8 28.7 164 5.1 41.2
19:05 1013 29.91 843 24.89 -1.8 28.7 164 5.1 41.2
19:10 1013 29.91 843 24.89 -1.8 28.7 164 5.1 41.2
19:15 1013 29.91 843 24.89 -1.7 28.9 164 5.2 41.4
19:20 1013 29.91 843 24.89 -1.7 28.9 164 5.2 41.4
19:25 1013 29.91 843 24.89 -1.7 28.9 164 5.2 41.3
19:30 1014 29.94 843 24.89 -1.8 28.8 164 5.1 41.2
19:35 1014 29.94 843 24.89 -1.9 28.6 164 5 41
19:40 1014 29.94 843 24.89 -2 28.5 164 5 40.9
19:45 1014 29.94 843 24.89 -1.9 28.5 164 5 41
19:50 1014 29.94 843 24.89 -1.9 28.6 164 5 41
19:55 1014 29.94 843 24.89 -1.9 28.7 164 5.1 41.1
20:00 1014 29.94 843 24.89 -1.8 28.7 164 5.1 41.2
20:05 1014 29.94 843 24.89 -1.7 28.9 164 5.2 41.4
20:10 1014 29.94 843 24.89 -1.6 29.1 164 5.3 41.6
20:15 1014 29.94 843 24.89 -1.5 29.4 164 5.5 41.8
20:20 1014 29.94 843 24.89 -1.4 29.4 164 5.5 41.9
20:25 1014 29.94 843 24.89 -1.4 29.4 164 5.5 41.9
20:30 1014 29.94 843 24.89 -1.5 29.3 164 5.5 41.9
20:35 1014 29.94 843 24.89 -1.5 29.4 164 5.5 41.9
20:40 1014 29.94 843 24.89 -1.4 29.4 164 5.5 41.9
20:45 1014 29.94 844 24.92 -1.4 29.4 164 5.5 41.9
20:50 1014 29.94 844 24.92 -1.5 29.4 164 5.5 41.9
20:55 1015 29.97 844 24.92 -1.4 29.4 164 5.5 41.9
21:00 1015 29.97 844 24.92 -1.5 29.4 164 5.5 41.9
21:05 1015 29.97 844 24.92 -1.6 29.1 164 5.4 41.6
21:10 1015 29.97 844 24.92 -1.7 29 120 0.8 33.5
21:15 1015 29.97 844 24.92 -1.7 28.9 88 -3.5 25.8
21:20 1015 29.97 844 24.92 -1.7 28.9 87 -3.5 25.7
21:25 1015 29.97 844 24.92 -1.7 29 87 -3.6 25.6
21:30 1015 29.97 844 24.92 -1.7 28.9 86 -3.8 25.2
21:35 1015 29.97 844 24.92 -1.7 28.9 85 -4 24.9
21:40 1015 29.97 844 24.92 -1.8 28.7 84 -4.1 24.6
21:45 1015 29.97 844 24.92 -2 28.3 84 -4.3 24.2
21:50 1015 29.97 844 24.92 -2.1 28.2 84 -4.5 24
21:55 1015 29.97 845 24.95 -2 28.4 83 -4.5 23.9
22:00 1015 29.97 845 24.95 -1.9 28.6 83 -4.4 24
22:05 1015 29.97 845 24.95 -1.9 28.6 82 -4.6 23.8
22:10 1015 29.97 845 24.95 -1.8 28.7 80 -4.8 23.3
22:15 1015 29.97 845 24.95 -1.8 28.7 80 -4.7 23.5
22:20 1016 30 845 24.95 -1.8 28.8 81 -4.7 23.5
22:25 1016 30 845 24.95 -1.8 28.7 82 -4.6 23.8
22:30 1016 30 845 24.95 -1.9 28.6 82 -4.6 23.8
22:35 1016 30 845 24.95 -2 28.4 83 -4.4 24
22:40 1016 30 845 24.95 -2 28.3 84 -4.4 24
22:45 1016 30 845 24.95 -2.1 28.3 83 -4.7 23.6
22:50 1016 30 845 24.95 -2 28.3 82 -4.6 23.7
22:55 1016 30 845 24.95 -2 28.4 82 -4.7 23.5
23:00 1016 30 845 24.95 -2 28.5 81 -4.8 23.3
23:05 1016 30 845 24.95 -2 28.5 80 -5 22.9
23:10 1016 30 845 24.95 -1.9 28.5 80 -5 23
23:15 1016 30 845 24.95 -2 28.4 79 -5.1 22.8
23:20 1016 30 845 24.95 -2 28.4 79 -5.2 22.6
23:25 1016 30 845 24.95 -2.1 28.3 78 -5.4 22.3
23:30 1016 30 845 24.95 -2.2 28 77 -5.8 21.5
23:35 1016 30 845 24.95 -2.4 27.7 76 -6 21.1
23:40 1016 30 845 24.95 -2.5 27.5 76 -6.1 20.9
23:45 1016 30 845 24.95 -2.5 27.6 75 -6.3 20.7
23:50 1016 30 845 24.95 -2.4 27.6 74 -6.4 20.4
23:55 1016 30 845 24.95 -2.4 27.7 74 -6.5 20.3
24:00 1016 30 845 24.95 -2.4 27.8 73 -6.6 20.1